createdAt,value
2023-01-13T00:01:06.737Z,1.80
2023-01-13T00:03:08.330Z,1.45
2023-01-13T00:05:10.373Z,1.52
2023-01-13T00:07:12.063Z,1.50
2023-01-13T00:09:13.727Z,1.87
2023-01-13T00:11:18.989Z,2.35
2023-01-13T00:13:22.620Z,1.30
2023-01-13T00:15:24.296Z,1.80
2023-01-13T00:17:25.962Z,1.30
2023-01-13T00:19:27.862Z,2.00
2023-01-13T00:21:29.611Z,1.30
2023-01-13T00:23:32.956Z,1.67
2023-01-13T00:25:34.658Z,1.30
2023-01-13T00:27:36.467Z,1.30
2023-01-13T00:29:39.648Z,1.40
2023-01-13T00:31:41.249Z,1.45
2023-01-13T00:33:43.408Z,1.40
2023-01-13T00:35:45.145Z,1.85
2023-01-13T00:37:46.817Z,1.63
2023-01-13T00:39:48.613Z,1.88
2023-01-13T00:41:50.401Z,1.42
2023-01-13T00:43:52.148Z,1.43
2023-01-13T00:45:55.610Z,1.45
2023-01-13T00:47:57.198Z,1.48
2023-01-13T00:49:58.849Z,1.43
2023-01-13T00:52:00.463Z,1.37
2023-01-13T00:54:02.174Z,1.60
2023-01-13T00:56:05.948Z,1.63
2023-01-13T00:58:07.533Z,1.50
2023-01-13T01:00:10.882Z,1.43
2023-01-13T01:02:14.286Z,1.50
2023-01-13T01:04:17.576Z,1.23
2023-01-13T01:06:21.349Z,2.17
2023-01-13T01:08:23.514Z,1.30
2023-01-13T01:10:25.454Z,1.70
2023-01-13T01:12:27.174Z,1.83
2023-01-13T01:14:29.108Z,1.57
2023-01-13T01:16:32.960Z,1.20
2023-01-13T01:18:37.099Z,1.25
2023-01-13T01:20:38.748Z,1.20
2023-01-13T01:22:40.389Z,1.30
2023-01-13T01:24:42.007Z,1.57
2023-01-13T01:26:43.638Z,1.40
2023-01-13T01:28:48.531Z,1.42
2023-01-13T01:30:52.817Z,1.43
2023-01-13T01:32:54.487Z,1.63
2023-01-13T01:35:00.287Z,1.40
2023-01-13T01:37:01.921Z,2.00
2023-01-13T01:39:04.772Z,1.30
2023-01-13T01:41:07.156Z,1.40
2023-01-13T01:43:14.464Z,1.30
2023-01-13T01:45:19.525Z,1.20
2023-01-13T01:47:22.642Z,1.20
2023-01-13T01:49:28.925Z,1.58
2023-01-13T01:51:35.584Z,1.80
2023-01-13T01:53:37.908Z,1.30
2023-01-13T01:55:40.024Z,1.25
2023-01-13T01:57:48.168Z,1.20
2023-01-13T01:59:51.016Z,1.03
2023-01-13T02:01:52.845Z,2.10
2023-01-13T02:04:01.397Z,1.58
2023-01-13T02:06:03.422Z,1.53
2023-01-13T02:08:08.849Z,1.45
2023-01-13T02:10:12.959Z,1.23
2023-01-13T02:12:15.636Z,1.10
2023-01-13T02:14:18.068Z,1.10
2023-01-13T02:16:23.371Z,1.17
2023-01-13T02:18:36.333Z,0.90
2023-01-13T02:20:55.243Z,1.10
2023-01-13T02:23:30.613Z,1.08
2023-01-13T02:26:00.712Z,1.45
2023-01-13T02:28:30.451Z,1.20
2023-01-13T02:30:40.672Z,0.90
2023-01-13T02:32:56.375Z,1.15
2023-01-13T02:35:05.276Z,0.83
2023-01-13T02:37:14.253Z,1.40
2023-01-13T02:39:23.123Z,0.90
2023-01-13T02:41:31.515Z,1.02
2023-01-13T02:43:38.453Z,1.00
2023-01-13T02:45:51.104Z,0.80
2023-01-13T02:47:53.912Z,1.38
2023-01-13T02:50:00.288Z,1.10
2023-01-13T02:52:09.085Z,1.10
2023-01-13T02:54:15.562Z,1.02
2023-01-13T02:56:17.957Z,1.25
2023-01-13T02:58:24.105Z,0.90
2023-01-13T03:00:26.911Z,1.10
2023-01-13T03:02:29.929Z,1.20
2023-01-13T03:04:54.184Z,1.20
2023-01-13T03:07:04.131Z,1.43
2023-01-13T03:09:12.081Z,1.40
2023-01-13T03:11:16.738Z,1.05
2023-01-13T03:13:33.402Z,1.42
2023-01-13T03:15:43.626Z,1.15
2023-01-13T03:17:55.780Z,1.20
2023-01-13T03:20:04.868Z,1.90
2023-01-13T03:22:18.157Z,1.17
2023-01-13T03:24:25.781Z,1.33
2023-01-13T03:26:33.990Z,1.08
2023-01-13T03:28:40.366Z,1.10
2023-01-13T03:30:48.531Z,1.10
2023-01-13T03:32:58.781Z,1.10
2023-01-13T03:35:08.020Z,1.20
2023-01-13T03:37:10.911Z,1.00
2023-01-13T03:39:19.920Z,1.27
2023-01-13T03:41:25.899Z,1.40
2023-01-13T03:43:33.589Z,1.20
2023-01-13T03:45:37.142Z,1.23
2023-01-13T03:47:42.688Z,1.40
2023-01-13T03:49:52.746Z,1.45
2023-01-13T03:51:58.703Z,1.10
2023-01-13T03:54:04.972Z,1.10
2023-01-13T03:56:15.809Z,1.30
2023-01-13T03:58:22.457Z,1.08
2023-01-13T04:00:31.735Z,1.10
2023-01-13T04:02:44.048Z,1.73
2023-01-13T04:04:51.999Z,1.13
2023-01-13T04:06:58.210Z,1.23
2023-01-13T04:09:06.677Z,1.10
2023-01-13T04:11:14.614Z,1.30
2023-01-13T04:13:20.559Z,0.88
2023-01-13T04:15:25.264Z,0.90
2023-01-13T04:17:26.908Z,1.10
2023-01-13T04:19:28.596Z,1.10
2023-01-13T04:21:31.871Z,1.20
2023-01-13T04:23:34.160Z,1.00
2023-01-13T04:25:36.268Z,1.13
2023-01-13T04:27:38.100Z,1.20
2023-01-13T04:29:39.780Z,1.13
2023-01-13T04:31:41.574Z,1.10
2023-01-13T04:33:43.435Z,0.93
2023-01-13T04:35:46.346Z,0.90
2023-01-13T04:37:49.542Z,0.80
2023-01-13T04:39:51.270Z,1.00
2023-01-13T04:41:52.929Z,1.02
2023-01-13T04:43:54.645Z,0.70
2023-01-13T04:45:56.316Z,1.10
2023-01-13T04:47:58.612Z,1.00
2023-01-13T04:50:01.763Z,1.25
2023-01-13T04:52:04.253Z,0.90
2023-01-13T04:54:10.417Z,0.80
2023-01-13T04:56:12.086Z,1.10
2023-01-13T04:58:15.334Z,0.75
2023-01-13T05:00:20.142Z,0.88
2023-01-13T05:02:22.077Z,1.10
2023-01-13T05:04:24.142Z,0.90
2023-01-13T05:06:28.006Z,1.02
2023-01-13T05:08:29.666Z,1.30
2023-01-13T05:10:32.734Z,0.90
2023-01-13T05:12:34.549Z,1.05
2023-01-13T05:14:36.185Z,0.85
2023-01-13T05:16:37.913Z,0.90
2023-01-13T05:18:39.850Z,1.10
2023-01-13T05:20:43.061Z,0.80
2023-01-13T05:22:44.699Z,0.77
2023-01-13T05:24:47.069Z,1.10
2023-01-13T05:26:50.196Z,1.00
2023-01-13T05:28:52.021Z,0.90
2023-01-13T05:30:53.772Z,0.95
2023-01-13T05:32:55.724Z,1.00
2023-01-13T05:34:57.781Z,0.90
2023-01-13T05:36:59.443Z,1.07
2023-01-13T05:39:01.088Z,0.90
2023-01-13T05:41:02.947Z,0.70
2023-01-13T05:43:09.076Z,0.95
2023-01-13T05:45:11.416Z,1.08
2023-01-13T05:47:13.040Z,1.08
2023-01-13T05:49:14.600Z,0.90
2023-01-13T05:51:16.192Z,0.70
2023-01-13T05:53:18.440Z,0.90
2023-01-13T05:55:20.123Z,0.80
2023-01-13T05:57:21.914Z,0.95
2023-01-13T05:59:24.891Z,0.93
2023-01-13T06:01:26.578Z,1.10
2023-01-13T06:03:28.388Z,0.82
2023-01-13T06:05:30.744Z,0.80
2023-01-13T06:07:32.408Z,0.90
2023-01-13T06:09:34.052Z,1.00
2023-01-13T06:11:35.670Z,0.75
2023-01-13T06:13:37.339Z,0.90
2023-01-13T06:15:40.318Z,0.75
2023-01-13T06:17:41.960Z,1.48
2023-01-13T06:19:43.623Z,1.30
2023-01-13T06:21:45.514Z,1.70
2023-01-13T06:23:47.365Z,0.97
2023-01-13T06:25:56.593Z,1.10
2023-01-13T06:27:59.942Z,1.87
2023-01-13T06:30:01.611Z,2.10
2023-01-13T06:32:09.584Z,1.63
2023-01-13T06:34:14.861Z,0.95
2023-01-13T06:36:19.507Z,1.40
2023-01-13T06:38:25.353Z,1.20
2023-01-13T06:40:30.340Z,0.90
2023-01-13T06:42:35.428Z,1.17
2023-01-13T06:44:37.581Z,1.23
2023-01-13T06:46:39.548Z,1.40
2023-01-13T06:48:42.694Z,1.10
2023-01-13T06:50:44.883Z,1.27
2023-01-13T06:52:46.799Z,1.08
2023-01-13T06:54:48.583Z,0.93
2023-01-13T06:56:51.696Z,1.00
2023-01-13T06:58:53.393Z,1.20
2023-01-13T07:00:59.265Z,0.90
2023-01-13T07:03:11.967Z,1.00
2023-01-13T07:05:15.817Z,1.00
2023-01-13T07:07:17.474Z,1.20
2023-01-13T07:09:19.226Z,1.10
2023-01-13T07:11:22.212Z,0.88
2023-01-13T07:13:24.061Z,0.80
2023-01-13T07:15:29.039Z,1.05
2023-01-13T07:17:30.643Z,0.70
2023-01-13T07:19:32.575Z,0.70
2023-01-13T07:21:35.549Z,0.60
2023-01-13T07:23:39.078Z,0.60
2023-01-13T07:25:40.706Z,0.80
2023-01-13T07:27:42.404Z,0.60
2023-01-13T07:29:46.788Z,0.50
2023-01-13T07:31:50.144Z,0.70
2023-01-13T07:33:52.264Z,0.77
2023-01-13T07:35:57.059Z,0.70
2023-01-13T07:38:00.176Z,0.90
2023-01-13T07:40:02.186Z,1.23
2023-01-13T07:42:04.040Z,1.33
2023-01-13T07:44:06.355Z,0.90
2023-01-13T07:46:08.101Z,0.85
2023-01-13T07:48:09.874Z,1.15
2023-01-13T07:50:12.000Z,0.93
2023-01-13T07:52:13.838Z,0.88
2023-01-13T07:54:21.146Z,1.10
2023-01-13T07:56:27.407Z,1.20
2023-01-13T07:58:29.465Z,0.70
2023-01-13T08:00:31.082Z,0.83
2023-01-13T08:02:33.209Z,0.70
2023-01-13T08:04:35.012Z,1.10
2023-01-13T08:06:39.009Z,0.80
2023-01-13T08:08:40.777Z,0.73
2023-01-13T08:10:44.276Z,0.68
2023-01-13T08:12:53.065Z,0.90
2023-01-13T08:14:59.044Z,0.80
2023-01-13T08:17:00.966Z,1.05
2023-01-13T08:19:02.600Z,1.30
2023-01-13T08:21:06.474Z,0.90
2023-01-13T08:23:08.145Z,1.00
2023-01-13T08:25:09.859Z,1.67
2023-01-13T08:27:13.252Z,1.23
2023-01-13T08:29:16.192Z,1.27
2023-01-13T08:31:18.241Z,1.10
2023-01-13T08:33:20.574Z,1.30
2023-01-13T08:35:22.709Z,1.40
2023-01-13T08:37:24.591Z,1.50
2023-01-13T08:39:26.282Z,1.67
2023-01-13T08:41:28.196Z,1.40
2023-01-13T08:43:31.207Z,1.75
2023-01-13T08:45:33.165Z,1.75
2023-01-13T08:47:35.212Z,2.00
2023-01-13T08:49:37.077Z,1.30
2023-01-13T08:51:38.805Z,1.60
2023-01-13T08:53:40.537Z,1.20
2023-01-13T08:55:42.237Z,2.23
2023-01-13T08:57:44.006Z,2.25
2023-01-13T08:59:47.224Z,4.55
2023-01-13T09:01:48.975Z,6.90
2023-01-13T09:03:50.905Z,3.90
2023-01-13T09:05:52.723Z,3.47
2023-01-13T09:07:54.410Z,2.78
2023-01-13T09:09:56.154Z,2.10
2023-01-13T09:11:57.957Z,1.70
2023-01-13T09:14:01.232Z,1.25
2023-01-13T09:16:06.237Z,1.55
2023-01-13T09:18:07.999Z,1.75
2023-01-13T09:20:11.273Z,1.60
2023-01-13T09:22:16.293Z,2.10
2023-01-13T09:24:20.220Z,1.70
2023-01-13T09:26:21.987Z,1.50
2023-01-13T09:28:23.751Z,1.70
2023-01-13T09:30:25.802Z,1.40
2023-01-13T09:32:28.906Z,1.15
2023-01-13T09:34:30.659Z,1.25
2023-01-13T09:36:32.329Z,1.85
2023-01-13T09:38:34.045Z,1.67
2023-01-13T09:40:39.672Z,1.60
2023-01-13T09:42:46.845Z,1.10
2023-01-13T09:44:53.216Z,1.35
2023-01-13T09:46:58.882Z,0.90
2023-01-13T09:49:02.696Z,1.50
2023-01-13T09:51:11.978Z,1.30
2023-01-13T09:53:20.152Z,1.10
2023-01-13T09:55:26.770Z,1.60
2023-01-13T09:57:32.620Z,2.00
2023-01-13T09:59:34.733Z,1.80
2023-01-13T10:01:44.282Z,1.40
2023-01-13T10:03:46.128Z,2.05
2023-01-13T10:05:55.646Z,1.83
2023-01-13T10:08:01.789Z,2.07
2023-01-13T10:10:09.529Z,1.98
2023-01-13T10:12:17.430Z,2.17
2023-01-13T10:14:23.857Z,2.15
2023-01-13T10:16:33.742Z,1.80
2023-01-13T10:18:49.107Z,2.20
2023-01-13T10:21:01.081Z,1.73
2023-01-13T10:23:14.500Z,1.83
2023-01-13T10:25:33.123Z,1.53
2023-01-13T10:27:37.281Z,1.65
2023-01-13T10:29:39.089Z,1.60
2023-01-13T10:31:41.276Z,1.58
2023-01-13T10:33:43.003Z,2.42
2023-01-13T10:36:15.192Z,1.83
2023-01-13T10:38:19.057Z,1.58
2023-01-13T10:40:20.927Z,1.87
2023-01-13T10:42:24.104Z,1.70
2023-01-13T10:44:26.004Z,2.00
2023-01-13T10:46:29.537Z,1.40
2023-01-13T10:48:40.827Z,1.50
2023-01-13T10:50:44.010Z,1.70
2023-01-13T10:53:01.179Z,1.90
2023-01-13T10:55:04.027Z,1.80
2023-01-13T10:57:19.806Z,3.38
2023-01-13T10:59:23.560Z,1.37
2023-01-13T11:01:27.187Z,2.00
2023-01-13T11:03:38.179Z,1.63
2023-01-13T11:05:40.115Z,2.22
2023-01-13T11:07:47.350Z,3.38
2023-01-13T11:10:05.981Z,1.80
2023-01-13T11:12:30.050Z,2.50
2023-01-13T11:14:38.694Z,2.05
2023-01-13T11:16:52.747Z,1.60
2023-01-13T11:18:59.611Z,1.80
2023-01-13T11:21:07.761Z,1.80
2023-01-13T11:23:15.708Z,2.45
2023-01-13T11:25:23.649Z,1.95
2023-01-13T11:27:37.090Z,2.13
2023-01-13T11:29:47.778Z,2.58
2023-01-13T11:31:54.305Z,2.10
2023-01-13T11:34:02.841Z,2.33
2023-01-13T11:36:10.948Z,1.53
2023-01-13T11:38:20.440Z,2.10
2023-01-13T11:40:31.098Z,1.90
2023-01-13T11:42:41.677Z,2.60
2023-01-13T11:44:50.680Z,2.83
2023-01-13T11:46:53.733Z,3.03
2023-01-13T11:48:59.391Z,2.00
2023-01-13T11:51:08.206Z,2.20
2023-01-13T11:53:28.499Z,2.57
2023-01-13T11:55:38.630Z,1.63
2023-01-13T11:57:56.269Z,1.83
2023-01-13T12:00:16.488Z,2.27
2023-01-13T12:02:33.852Z,1.97
2023-01-13T12:04:43.875Z,1.80
2023-01-13T12:06:48.403Z,2.30
2023-01-13T12:09:12.112Z,2.13
2023-01-13T12:11:25.323Z,2.40
2023-01-13T12:13:44.710Z,2.23
2023-01-13T12:16:15.192Z,2.10
2023-01-13T12:18:40.688Z,2.00
2023-01-13T12:20:51.889Z,1.83
2023-01-13T12:22:57.967Z,2.77
2023-01-13T12:25:05.926Z,2.38
2023-01-13T12:27:15.698Z,2.37
2023-01-13T12:29:19.315Z,2.22
2023-01-13T12:31:22.191Z,2.10
2023-01-13T12:33:40.044Z,2.03
2023-01-13T12:35:49.550Z,2.58
2023-01-13T12:37:58.552Z,2.30
2023-01-13T12:40:19.480Z,2.20
2023-01-13T12:42:29.984Z,2.20
2023-01-13T12:44:31.898Z,1.67
2023-01-13T12:46:35.507Z,2.40
2023-01-13T12:49:03.892Z,1.77
2023-01-13T12:51:21.573Z,1.55
2023-01-13T12:53:36.368Z,2.15
2023-01-13T12:55:38.160Z,1.77
2023-01-13T12:57:56.590Z,1.83
2023-01-13T13:00:22.300Z,1.90
2023-01-13T13:02:32.996Z,1.70
2023-01-13T13:04:43.624Z,2.17
2023-01-13T13:06:52.438Z,2.25
2023-01-13T13:09:04.039Z,1.73
2023-01-13T13:11:35.262Z,1.90
2023-01-13T13:13:44.789Z,2.47
2023-01-13T13:15:49.011Z,1.70
2023-01-13T13:18:35.233Z,2.30
2023-01-13T13:21:04.002Z,2.20
2023-01-13T13:23:27.146Z,1.42
2023-01-13T13:25:28.848Z,1.83
2023-01-13T13:27:43.560Z,1.90
2023-01-13T13:29:52.505Z,2.33
2023-01-13T13:32:12.668Z,2.00
2023-01-13T13:34:27.509Z,2.00
2023-01-13T13:36:50.365Z,2.37
2023-01-13T13:39:15.652Z,1.57
2023-01-13T13:41:22.461Z,1.80
2023-01-13T13:43:24.939Z,1.80
2023-01-13T13:45:31.188Z,1.63
2023-01-13T13:47:35.868Z,2.50
2023-01-13T13:49:40.546Z,2.05
2023-01-13T13:51:47.964Z,1.73
2023-01-13T13:53:49.789Z,1.20
2023-01-13T13:55:57.565Z,2.35
2023-01-13T13:57:59.827Z,1.40
2023-01-13T14:00:08.437Z,1.55
2023-01-13T14:02:21.113Z,1.30
2023-01-13T14:04:24.873Z,1.13
2023-01-13T14:06:26.730Z,1.50
2023-01-13T14:08:30.437Z,1.85
2023-01-13T14:10:34.960Z,1.33
2023-01-13T14:12:38.427Z,1.88
2023-01-13T14:14:43.069Z,1.30
2023-01-13T14:16:44.973Z,1.83
2023-01-13T14:18:48.652Z,1.60
2023-01-13T14:20:55.061Z,1.70
2023-01-13T14:22:59.900Z,1.85
2023-01-13T14:25:01.695Z,1.52
2023-01-13T14:27:11.044Z,1.02
2023-01-13T14:29:19.794Z,1.30
2023-01-13T14:31:24.876Z,1.53
2023-01-13T14:33:33.828Z,1.52
2023-01-13T14:35:36.822Z,1.50
2023-01-13T14:37:41.290Z,1.70
2023-01-13T14:39:42.944Z,1.38
2023-01-13T14:41:46.850Z,1.00
2023-01-13T14:43:50.530Z,1.48
2023-01-13T14:45:57.532Z,1.73
2023-01-13T14:48:01.420Z,1.60
2023-01-13T14:50:06.905Z,1.20
2023-01-13T14:52:17.099Z,1.40
2023-01-13T14:54:52.653Z,1.93
2023-01-13T14:57:12.218Z,1.67
2023-01-13T14:59:42.047Z,1.88
2023-01-13T15:01:44.042Z,2.30
2023-01-13T15:03:45.845Z,2.20
2023-01-13T15:05:48.972Z,2.17
2023-01-13T15:07:54.058Z,2.00
2023-01-13T15:09:59.510Z,2.58
2023-01-13T15:12:15.566Z,2.30
2023-01-13T15:14:23.649Z,1.77
2023-01-13T15:16:27.158Z,2.30
2023-01-13T15:18:29.069Z,2.58
2023-01-13T15:20:30.936Z,3.10
2023-01-13T15:22:34.546Z,3.17
2023-01-13T15:24:37.615Z,3.40
2023-01-13T15:26:39.333Z,2.60
2023-01-13T15:28:41.205Z,3.55
2023-01-13T15:30:43.449Z,3.08
2023-01-13T15:32:45.738Z,3.27
2023-01-13T15:34:48.633Z,2.42
2023-01-13T15:36:50.379Z,2.50
2023-01-13T15:38:52.359Z,2.22
2023-01-13T15:40:57.815Z,2.13
2023-01-13T15:42:59.567Z,2.42
2023-01-13T15:45:01.381Z,2.80
2023-01-13T15:47:06.857Z,2.20
2023-01-13T15:49:22.943Z,2.67
2023-01-13T15:51:26.756Z,2.67
2023-01-13T15:53:28.800Z,2.55
2023-01-13T15:55:37.725Z,3.55
2023-01-13T15:57:49.614Z,2.88
2023-01-13T15:59:58.460Z,2.50
2023-01-13T16:02:16.159Z,2.78
2023-01-13T16:04:22.671Z,2.13
2023-01-13T16:06:31.913Z,2.50
2023-01-13T16:08:33.843Z,2.85
2023-01-13T16:11:27.080Z,2.53
2023-01-13T16:13:30.261Z,10.38
2023-01-13T16:23:11.168Z,3.63
2023-01-13T16:25:16.443Z,2.55
2023-01-13T16:27:20.427Z,3.83
2023-01-13T16:29:22.137Z,2.35
2023-01-13T16:31:26.816Z,2.57
2023-01-13T16:33:28.419Z,3.67
2023-01-13T16:35:30.372Z,2.45
2023-01-13T16:37:31.928Z,2.78
2023-01-13T16:39:34.910Z,2.97
2023-01-13T16:41:36.567Z,2.20
2023-01-13T16:43:38.616Z,2.60
2023-01-13T16:45:41.081Z,3.10
2023-01-13T16:47:42.671Z,2.28
2023-01-13T16:49:45.112Z,2.95
2023-01-13T16:51:46.751Z,2.20
2023-01-13T16:53:49.007Z,2.05
2023-01-13T16:55:51.978Z,2.45
2023-01-13T16:57:53.628Z,2.80
2023-01-13T16:59:55.227Z,2.38
2023-01-13T17:01:56.955Z,3.03
2023-01-13T17:03:59.182Z,2.20
2023-01-13T17:06:01.958Z,2.60
2023-01-13T17:08:03.840Z,2.40
2023-01-13T17:10:06.309Z,1.98
2023-01-13T17:12:09.958Z,2.28
2023-01-13T17:14:19.282Z,2.17
2023-01-13T17:16:24.264Z,1.92
2023-01-13T17:18:25.939Z,2.20
2023-01-13T17:20:28.161Z,2.45
2023-01-13T17:22:29.733Z,2.20
2023-01-13T17:24:31.357Z,2.20
2023-01-13T17:26:35.419Z,2.25
2023-01-13T17:28:38.540Z,2.80
2023-01-13T17:30:43.513Z,1.98
2023-01-13T17:32:45.092Z,2.08
2023-01-13T17:34:47.294Z,2.20
2023-01-13T17:36:49.378Z,3.05
2023-01-13T17:38:51.047Z,1.87
2023-01-13T17:40:52.641Z,2.22
2023-01-13T17:42:54.311Z,2.13
2023-01-13T17:44:57.318Z,2.17
2023-01-13T17:46:58.900Z,2.00
2023-01-13T17:49:00.451Z,2.53
2023-01-13T17:51:01.996Z,2.25
2023-01-13T17:53:03.640Z,2.25
2023-01-13T17:55:06.034Z,1.90
2023-01-13T17:57:07.771Z,2.65
2023-01-13T17:59:11.711Z,2.75
2023-01-13T18:01:16.856Z,2.92
2023-01-13T18:03:18.830Z,2.35
2023-01-13T18:05:20.436Z,2.23
2023-01-13T18:07:22.032Z,2.35
2023-01-13T18:09:23.591Z,3.08
2023-01-13T18:11:26.009Z,2.17
2023-01-13T18:13:27.608Z,2.70
2023-01-13T18:15:29.393Z,2.85
2023-01-13T18:17:32.436Z,3.00
2023-01-13T18:19:33.981Z,2.80
2023-01-13T18:21:35.568Z,3.40
2023-01-13T18:23:37.145Z,2.67
2023-01-13T18:25:39.594Z,2.63
2023-01-13T18:27:41.219Z,2.97
2023-01-13T18:29:43.178Z,2.63
2023-01-13T18:31:45.093Z,2.55
2023-01-13T18:33:48.076Z,2.20
2023-01-13T18:35:50.090Z,1.92
2023-01-13T18:37:51.764Z,2.88
2023-01-13T18:39:53.652Z,2.42
2023-01-13T18:41:55.258Z,2.50
2023-01-13T18:43:57.036Z,3.22
2023-01-13T18:45:58.745Z,2.45
2023-01-13T18:48:02.425Z,3.08
2023-01-13T18:50:06.547Z,2.30
2023-01-13T18:52:08.140Z,2.67
2023-01-13T18:54:09.833Z,2.90
2023-01-13T18:56:12.690Z,2.65
2023-01-13T18:58:14.257Z,2.40
2023-01-13T19:00:19.367Z,3.13
2023-01-13T19:02:21.144Z,3.85
2023-01-13T19:04:22.756Z,2.50
2023-01-13T19:06:26.564Z,2.67
2023-01-13T19:08:28.377Z,2.30
2023-01-13T19:10:30.066Z,2.38
2023-01-13T19:12:32.090Z,2.90
2023-01-13T19:14:33.729Z,2.72
2023-01-13T19:16:35.496Z,3.40
2023-01-13T19:18:37.079Z,3.17
2023-01-13T19:20:38.655Z,2.30
2023-01-13T19:22:41.644Z,3.03
2023-01-13T19:24:43.454Z,2.40
2023-01-13T19:26:45.124Z,1.90
2023-01-13T19:28:46.657Z,3.20
2023-01-13T19:30:50.660Z,3.15
2023-01-13T19:32:52.314Z,3.60
2023-01-13T19:34:53.953Z,5.45
2023-01-13T19:36:55.642Z,3.63
2023-01-13T19:38:58.646Z,3.97
2023-01-13T19:41:02.184Z,4.28
2023-01-13T19:43:03.840Z,4.30
2023-01-13T19:45:06.476Z,4.40
2023-01-13T19:47:08.072Z,5.38
2023-01-13T19:49:09.777Z,4.00
2023-01-13T19:51:11.728Z,3.78
2023-01-13T19:53:16.715Z,3.88
2023-01-13T19:55:19.950Z,4.03
2023-01-13T19:57:21.588Z,4.65
2023-01-13T19:59:23.411Z,4.25
2023-01-13T20:01:25.174Z,3.88
2023-01-13T20:03:27.265Z,3.85
2023-01-13T20:05:28.909Z,2.63
2023-01-13T20:07:32.917Z,3.58
2023-01-13T20:09:34.910Z,3.05
2023-01-13T20:11:38.180Z,2.92
2023-01-13T20:13:39.803Z,3.08
2023-01-13T20:15:41.973Z,2.90
2023-01-13T20:17:43.997Z,2.97
2023-01-13T20:19:46.136Z,2.80
2023-01-13T20:21:47.800Z,3.53
2023-01-13T20:23:50.139Z,3.78
2023-01-13T20:25:51.780Z,4.28
2023-01-13T20:27:56.251Z,4.85
2023-01-13T20:29:57.839Z,3.33
2023-01-13T20:31:59.812Z,3.45
2023-01-13T20:34:01.467Z,3.90
2023-01-13T20:36:03.537Z,3.25
2023-01-13T20:38:05.292Z,2.90
2023-01-13T20:40:08.374Z,2.58
2023-01-13T20:42:10.210Z,3.22
2023-01-13T20:44:14.102Z,2.22
2023-01-13T20:46:15.888Z,2.85
2023-01-13T20:48:17.712Z,2.70
2023-01-13T20:50:19.567Z,3.10
2023-01-13T20:52:21.237Z,3.20
2023-01-13T20:54:23.300Z,2.60
2023-01-13T20:56:25.169Z,3.55
2023-01-13T20:58:26.855Z,3.55
2023-01-13T21:00:29.862Z,3.00
2023-01-13T21:02:31.571Z,2.90
2023-01-13T21:04:33.475Z,3.25
2023-01-13T21:06:35.400Z,2.90
2023-01-13T21:08:36.974Z,2.38
2023-01-13T21:10:38.648Z,2.60
2023-01-13T21:12:40.230Z,3.13
2023-01-13T21:14:41.833Z,2.70
2023-01-13T21:16:44.799Z,3.92
2023-01-13T21:18:46.535Z,3.65
2023-01-13T21:20:48.235Z,3.38
2023-01-13T21:22:50.085Z,2.92
2023-01-13T21:24:51.814Z,2.90
2023-01-13T21:26:53.405Z,2.67
2023-01-13T21:29:05.288Z,2.67
2023-01-13T21:31:09.211Z,3.15
2023-01-13T21:33:14.114Z,3.55
2023-01-13T21:35:16.053Z,3.05
2023-01-13T21:37:17.834Z,2.78
2023-01-13T21:39:19.378Z,3.28
2023-01-13T21:41:21.260Z,3.38
2023-01-13T21:43:22.831Z,2.10
2023-01-13T21:45:24.448Z,3.40
2023-01-13T21:47:26.209Z,2.58
2023-01-13T21:49:29.270Z,3.22
2023-01-13T21:51:31.493Z,3.47
2023-01-13T21:53:33.334Z,3.03
2023-01-13T21:55:35.911Z,2.63
2023-01-13T21:57:37.683Z,3.35
2023-01-13T21:59:39.324Z,4.13
2023-01-13T22:02:23.431Z,2.90
2023-01-13T22:04:02.519Z,2.75
2023-01-13T22:06:06.076Z,3.30
2023-01-13T22:08:07.695Z,2.90
2023-01-13T22:10:11.106Z,2.70
2023-01-13T22:12:12.875Z,3.15
2023-01-13T22:14:14.450Z,3.22
2023-01-13T22:16:16.154Z,2.80
2023-01-13T22:18:17.808Z,2.72
2023-01-13T22:20:20.282Z,2.67
2023-01-13T22:22:23.945Z,3.45
2023-01-13T22:24:25.541Z,2.88
2023-01-13T22:26:27.466Z,2.65
2023-01-13T22:28:29.187Z,3.50
2023-01-13T22:30:30.771Z,3.38
2023-01-13T22:32:35.901Z,4.38
2023-01-13T22:34:37.682Z,2.78
2023-01-13T22:36:39.258Z,2.88
2023-01-13T22:38:42.210Z,3.35
2023-01-13T22:40:43.914Z,3.80
2023-01-13T22:42:45.479Z,3.10
2023-01-13T22:44:47.075Z,2.80
2023-01-13T22:46:48.862Z,2.70
2023-01-13T22:48:50.511Z,2.83
2023-01-13T22:50:52.200Z,3.35
2023-01-13T22:52:53.733Z,2.75
2023-01-13T22:54:56.653Z,3.00
2023-01-13T22:56:58.241Z,3.00
2023-01-13T22:59:01.820Z,2.42
2023-01-13T23:01:10.741Z,3.63
2023-01-13T23:03:12.391Z,2.83
2023-01-13T23:05:14.176Z,3.13
2023-01-13T23:07:15.719Z,3.58
2023-01-13T23:09:17.266Z,2.50
2023-01-13T23:11:22.520Z,2.90
2023-01-13T23:13:24.110Z,2.97
2023-01-13T23:15:25.629Z,2.80
2023-01-13T23:17:27.252Z,2.95
2023-01-13T23:19:28.776Z,3.35
2023-01-13T23:21:33.026Z,3.00
2023-01-13T23:23:34.724Z,3.13
2023-01-13T23:25:36.377Z,2.60
2023-01-13T23:27:39.685Z,3.70
2023-01-13T23:29:41.420Z,2.85
2023-01-13T23:31:42.986Z,2.50
2023-01-13T23:33:45.303Z,3.35
2023-01-13T23:35:56.882Z,3.15
2023-01-13T23:37:58.456Z,3.50
2023-01-13T23:39:59.979Z,3.38
2023-01-13T23:42:01.707Z,3.78
2023-01-13T23:44:04.897Z,3.53
2023-01-13T23:46:09.075Z,3.05
2023-01-13T23:48:10.919Z,3.85
2023-01-13T23:50:12.527Z,3.95
2023-01-13T23:52:14.141Z,3.80
2023-01-13T23:54:15.663Z,3.97
2023-01-13T23:56:19.196Z,3.75
2023-01-13T23:58:20.856Z,3.45
